Latest Weather Forecast - Thursday 19th January 2023(6 am)

Forecast Period: 

6 am 19th January, 2023 to 12 pm 19th January, 2023

Synopsis:
A ridge of high pressure is the dominant feature
Forecast:

Partly cloudy to occasionally cloudy and breezy at times with the chance isolated showers

Weather Advisory/Warning:

None

Winds:

ENE - E 20 to 35  km/h (12 to 22 mph)
Sea Conditions:
Slight to moderate in open water; swells from 1.0 m to 2.0 m

Marine
Advisory/Warning:

None

Upcoming Tides:
High:  ****  03:50 pm
Low:

 11:43 am

 07:24 pm

Aviation WX

[Source: ADDS]
METAR
TVSA 231300Z 04010KT 010V080 9999 FEW018 27/22 Q1016 NOSIG =
TVSA 231100Z 2312/2412 07010KT 9999 SCT020
TAF
TVSA 231100Z 2312/2412 07010KT 9999 SCT020 =
SR / SS: 10:06 / 22:15 UTC (Sunrise Sunset 2023-03-23)